createdAt,value
2018-04-18T00:02:20.465Z,73.80
2018-04-18T00:04:46.657Z,73.00
2018-04-18T00:07:12.918Z,73.20
2018-04-18T00:09:39.152Z,73.20
2018-04-18T00:12:05.366Z,73.30
2018-04-18T00:14:31.573Z,73.70
2018-04-18T00:16:57.826Z,73.90
2018-04-18T00:19:24.011Z,74.10
2018-04-18T00:21:50.952Z,73.80
2018-04-18T00:24:17.899Z,74.20
2018-04-18T00:26:44.866Z,73.70
2018-04-18T00:29:11.143Z,73.70
2018-04-18T00:31:37.384Z,73.70
2018-04-18T00:34:03.665Z,73.80
2018-04-18T00:36:29.877Z,73.80
2018-04-18T00:38:56.119Z,73.90
2018-04-18T00:41:22.295Z,73.90
2018-04-18T00:43:55.424Z,74.10
2018-04-18T00:46:21.609Z,74.20
2018-04-18T00:48:47.816Z,74.20
2018-04-18T00:51:14.008Z,74.40
2018-04-18T00:53:40.396Z,74.30
2018-04-18T00:56:06.600Z,74.30
2018-04-18T00:58:32.803Z,74.30
2018-04-18T01:00:59.027Z,74.30
2018-04-18T01:03:25.240Z,74.30
2018-04-18T01:05:51.485Z,74.00
2018-04-18T01:08:17.691Z,73.90
2018-04-18T01:10:44.087Z,73.60
2018-04-18T01:13:10.327Z,73.60
2018-04-18T01:15:37.423Z,73.70
2018-04-18T01:18:03.707Z,73.70
2018-04-18T01:20:29.903Z,73.50
2018-04-18T01:22:56.131Z,73.80
2018-04-18T01:25:22.356Z,73.70
2018-04-18T01:27:48.573Z,73.70
2018-04-18T01:30:14.827Z,73.80
2018-04-18T01:32:41.044Z,73.80
2018-04-18T01:35:07.284Z,73.80
2018-04-18T01:37:34.213Z,73.70
2018-04-18T01:40:00.663Z,73.70
2018-04-18T01:42:26.894Z,73.80
2018-04-18T01:44:53.888Z,73.80
2018-04-18T01:47:20.149Z,73.80
2018-04-18T01:49:46.377Z,73.80
2018-04-18T01:52:12.645Z,73.70
2018-04-18T01:54:38.876Z,73.70
2018-04-18T01:57:05.833Z,73.70
2018-04-18T01:59:32.038Z,73.60
2018-04-18T02:01:58.982Z,74.20
2018-04-18T02:04:25.919Z,74.30
2018-04-18T02:06:52.896Z,74.20
2018-04-18T02:09:19.104Z,74.80
2018-04-18T02:11:46.065Z,74.30
2018-04-18T02:14:12.297Z,74.30
2018-04-18T02:16:38.500Z,74.30
2018-04-18T02:19:05.432Z,74.40
2018-04-18T02:21:31.657Z,74.40
2018-04-18T02:23:57.873Z,74.40
2018-04-18T02:26:24.051Z,74.30
2018-04-18T02:28:50.308Z,74.20
2018-04-18T02:31:16.524Z,74.20
2018-04-18T02:33:42.761Z,74.20
2018-04-18T02:36:09.005Z,74.20
2018-04-18T02:38:35.215Z,74.30
2018-04-18T02:41:01.416Z,74.10
2018-04-18T02:43:27.620Z,74.50
2018-04-18T02:45:54.591Z,74.30
2018-04-18T02:48:20.865Z,73.90
2018-04-18T02:50:47.118Z,73.70
2018-04-18T02:53:14.087Z,73.50
2018-04-18T02:55:40.296Z,73.50
2018-04-18T02:58:07.304Z,73.80
2018-04-18T03:00:33.564Z,73.70
2018-04-18T03:02:59.830Z,73.70
2018-04-18T03:05:26.196Z,73.20
2018-04-18T03:07:52.376Z,73.90
2018-04-18T03:10:19.357Z,73.50
2018-04-18T03:12:45.689Z,73.40
2018-04-18T03:15:11.894Z,73.60
2018-04-18T03:17:38.146Z,73.40
2018-04-18T03:20:05.226Z,73.60
2018-04-18T03:22:31.437Z,73.50
2018-04-18T03:24:57.641Z,74.00
2018-04-18T03:27:23.844Z,73.70
2018-04-18T03:29:50.038Z,73.60
2018-04-18T03:32:16.239Z,73.70
2018-04-18T03:34:42.475Z,73.30
2018-04-18T03:37:08.692Z,73.10
2018-04-18T03:39:34.888Z,73.10
2018-04-18T03:42:01.115Z,72.90
2018-04-18T03:44:27.321Z,72.90
2018-04-18T03:46:53.564Z,72.50
2018-04-18T03:49:19.789Z,72.50
2018-04-18T03:51:45.992Z,72.30
2018-04-18T03:54:12.964Z,72.00
2018-04-18T03:56:39.177Z,71.90
2018-04-18T03:59:06.148Z,71.80
2018-04-18T04:01:32.338Z,71.70
2018-04-18T04:03:59.272Z,72.20
2018-04-18T04:06:25.467Z,72.20
2018-04-18T04:08:51.671Z,72.30
2018-04-18T04:11:18.895Z,72.30
2018-04-18T04:13:45.857Z,71.80
2018-04-18T04:16:36.047Z,71.80
2018-04-18T04:19:15.282Z,70.90
2018-04-18T04:21:53.800Z,70.80
2018-04-18T04:24:32.267Z,70.30
2018-04-18T04:26:58.476Z,70.00
2018-04-18T04:29:24.684Z,70.10
2018-04-18T04:31:50.869Z,70.40
2018-04-18T04:34:17.856Z,70.70
2018-04-18T04:36:44.121Z,70.70
2018-04-18T04:39:10.320Z,71.20
2018-04-18T04:41:36.644Z,71.30
2018-04-18T04:44:02.852Z,71.40
2018-04-18T04:46:29.083Z,71.40
2018-04-18T04:48:55.275Z,70.70
2018-04-18T04:51:22.244Z,69.80
2018-04-18T04:53:48.454Z,69.70
2018-04-18T04:56:15.424Z,68.90
2018-04-18T04:58:41.684Z,68.90
2018-04-18T05:01:07.956Z,68.30
2018-04-18T05:03:34.211Z,67.90
2018-04-18T05:06:00.452Z,67.60
2018-04-18T05:08:26.686Z,67.40
2018-04-18T05:10:52.908Z,67.30
2018-04-18T05:13:19.098Z,67.40
2018-04-18T05:15:45.839Z,67.50
2018-04-18T05:18:12.117Z,67.30
2018-04-18T05:20:38.352Z,67.40
2018-04-18T05:23:04.600Z,67.70
2018-04-18T05:25:30.784Z,67.80
2018-04-18T05:27:57.096Z,68.30
2018-04-18T05:30:23.319Z,67.70
2018-04-18T05:32:49.566Z,66.80
2018-04-18T05:35:15.780Z,65.90
2018-04-18T05:37:42.084Z,65.40
2018-04-18T05:40:08.301Z,65.10
2018-04-18T05:42:34.513Z,66.30
2018-04-18T05:45:00.737Z,65.60
2018-04-18T05:47:26.960Z,64.70
2018-04-18T05:49:53.265Z,64.10
2018-04-18T05:52:19.584Z,63.60
2018-04-18T05:57:18.962Z,62.60
2018-04-18T05:59:49.606Z,62.10
2018-04-18T06:02:16.580Z,62.40
2018-04-18T06:04:42.795Z,61.60
2018-04-18T06:07:09.842Z,60.60
2018-04-18T06:09:36.346Z,60.50
2018-04-18T06:12:02.600Z,60.30
2018-04-18T06:14:28.840Z,60.10
2018-04-18T06:16:55.047Z,59.80
2018-04-18T06:19:21.324Z,59.60
2018-04-18T06:21:47.600Z,59.30
2018-04-18T06:24:14.575Z,58.80
2018-04-18T06:26:40.791Z,58.80
2018-04-18T06:29:06.985Z,58.60
2018-04-18T06:31:33.188Z,58.30
2018-04-18T06:33:59.415Z,57.80
2018-04-18T06:36:26.620Z,57.00
2018-04-18T06:38:52.847Z,57.00
2018-04-18T06:41:19.169Z,56.70
2018-04-18T06:43:45.368Z,56.30
2018-04-18T06:46:12.335Z,56.00
2018-04-18T06:48:39.334Z,55.80
2018-04-18T06:51:06.408Z,55.50
2018-04-18T06:53:32.671Z,55.40
2018-04-18T06:55:58.951Z,55.40
2018-04-18T06:58:25.152Z,55.20
2018-04-18T07:00:51.360Z,54.80
2018-04-18T07:03:17.588Z,54.60
2018-04-18T07:05:43.776Z,54.40
2018-04-18T07:08:11.088Z,54.10
2018-04-18T07:10:37.318Z,54.00
2018-04-18T07:13:03.537Z,53.50
2018-04-18T07:15:29.748Z,51.90
2018-04-18T07:17:55.931Z,48.20
2018-04-18T07:20:22.168Z,44.00
2018-04-18T07:22:48.383Z,40.30
2018-04-18T07:25:14.576Z,37.40
2018-04-18T07:27:40.895Z,35.20
2018-04-18T07:30:07.104Z,33.30
2018-04-18T07:32:33.349Z,31.80
2018-04-18T07:34:59.573Z,30.50
2018-04-18T07:37:25.820Z,29.20
2018-04-18T07:39:52.020Z,28.40
2018-04-18T07:42:18.228Z,27.00
2018-04-18T07:44:45.181Z,25.90
2018-04-18T07:47:12.138Z,25.30
2018-04-18T07:49:38.348Z,25.20
2018-04-18T07:52:04.593Z,24.70
2018-04-18T07:54:31.552Z,24.00
2018-04-18T07:56:57.770Z,24.00
2018-04-18T07:59:23.992Z,23.30
2018-04-18T08:01:50.953Z,21.80
2018-04-18T08:04:17.908Z,21.20
2018-04-18T08:06:44.153Z,21.10
2018-04-18T08:09:10.447Z,20.60
2018-04-18T08:11:36.755Z,20.30
2018-04-18T08:14:03.001Z,20.10
2018-04-18T08:16:29.306Z,20.40
2018-04-18T08:18:56.348Z,19.80
2018-04-18T08:21:22.595Z,19.80
2018-04-18T08:23:49.201Z,19.40
2018-04-18T08:26:15.540Z,19.00
2018-04-18T08:28:41.782Z,18.70
2018-04-18T08:31:09.164Z,18.50
2018-04-18T08:33:36.659Z,17.50
2018-04-18T08:36:03.260Z,17.80
2018-04-18T08:38:30.862Z,17.10
2018-04-18T08:40:57.278Z,17.00
2018-04-18T08:43:23.507Z,16.50
2018-04-18T08:45:55.911Z,16.30
2018-04-18T08:48:24.017Z,16.40
2018-04-18T08:50:50.250Z,17.10
2018-04-18T08:53:16.505Z,16.40
2018-04-18T08:55:48.869Z,15.90
2018-04-18T08:58:15.864Z,15.30
2018-04-18T09:00:42.185Z,15.10
2018-04-18T09:03:08.460Z,14.90
2018-04-18T09:05:34.701Z,14.70
2018-04-18T09:08:00.989Z,14.90
2018-04-18T09:10:27.180Z,15.00
2018-04-18T09:12:54.145Z,15.00
2018-04-18T09:15:20.368Z,15.00
2018-04-18T09:17:52.816Z,15.10
2018-04-18T09:20:19.134Z,15.20
2018-04-18T09:22:45.364Z,15.30
2018-04-18T09:25:11.577Z,15.40
2018-04-18T09:27:37.816Z,15.20
2018-04-18T09:30:04.012Z,15.40
2018-04-18T09:32:30.205Z,15.40
2018-04-18T09:34:56.385Z,15.50
2018-04-18T09:37:23.460Z,16.50
2018-04-18T09:39:49.655Z,16.50
2018-04-18T09:42:16.623Z,18.50
2018-04-18T09:44:42.833Z,18.50
2018-04-18T09:47:10.655Z,20.40
2018-04-18T09:49:36.922Z,20.30
2018-04-18T09:52:03.144Z,21.00
2018-04-18T09:54:29.320Z,21.50
2018-04-18T09:56:55.569Z,22.30
2018-04-18T09:59:21.797Z,23.30
2018-04-18T10:01:48.047Z,24.30
2018-04-18T10:04:15.001Z,24.70
2018-04-18T10:06:41.904Z,24.40
2018-04-18T10:09:08.139Z,24.30
2018-04-18T10:11:34.402Z,24.80
2018-04-18T10:14:00.598Z,25.60
2018-04-18T10:16:26.794Z,25.50
2018-04-18T10:18:52.980Z,25.60
2018-04-18T10:21:25.281Z,25.70
2018-04-18T10:23:51.492Z,26.20
2018-04-18T10:26:17.732Z,26.90
2018-04-18T10:28:43.933Z,27.00
2018-04-18T10:31:10.901Z,26.70
2018-04-18T10:33:37.109Z,26.70
2018-04-18T10:36:03.397Z,26.30
2018-04-18T10:38:29.573Z,26.20
2018-04-18T10:40:55.781Z,26.60
2018-04-18T10:43:22.757Z,27.30
2018-04-18T10:45:48.983Z,27.30
2018-04-18T10:48:15.190Z,28.00
2018-04-18T10:50:42.137Z,27.30
2018-04-18T10:53:09.087Z,27.60
2018-04-18T10:55:35.330Z,27.60
2018-04-18T10:58:01.544Z,27.60
2018-04-18T11:00:27.805Z,27.20
2018-04-18T11:02:54.031Z,26.90
2018-04-18T11:05:20.234Z,27.00
2018-04-18T11:07:46.479Z,27.40
2018-04-18T11:10:12.674Z,27.10
2018-04-18T11:12:45.260Z,26.80
2018-04-18T11:15:11.765Z,26.80
2018-04-18T11:17:38.756Z,27.40
2018-04-18T11:20:04.992Z,27.40
2018-04-18T11:22:31.224Z,27.70
2018-04-18T11:24:57.464Z,29.60
2018-04-18T11:27:24.469Z,30.00
2018-04-18T11:29:50.725Z,30.00
2018-04-18T11:32:16.952Z,29.60
2018-04-18T11:34:43.198Z,30.00
2018-04-18T11:37:09.461Z,29.90
2018-04-18T11:39:35.732Z,29.30
2018-04-18T11:42:01.942Z,29.10
2018-04-18T11:44:28.188Z,29.30
2018-04-18T11:46:54.408Z,30.00
2018-04-18T11:49:20.657Z,30.00
2018-04-18T11:51:47.636Z,29.30
2018-04-18T11:54:13.892Z,29.30
2018-04-18T11:56:40.115Z,29.80
2018-04-18T11:59:06.325Z,29.90
2018-04-18T12:01:32.540Z,30.00
2018-04-18T12:03:58.764Z,29.80
2018-04-18T12:06:25.013Z,29.50
2018-04-18T12:08:51.915Z,29.90
2018-04-18T12:11:18.135Z,30.00
2018-04-18T12:13:44.440Z,29.50
2018-04-18T12:16:10.644Z,29.50
2018-04-18T12:18:36.874Z,29.40
2018-04-18T12:21:03.119Z,29.60
2018-04-18T12:23:29.373Z,29.90
2018-04-18T12:25:55.856Z,30.30
2018-04-18T12:28:22.872Z,29.60
2018-04-18T12:30:49.828Z,29.40
2018-04-18T12:33:16.058Z,29.30
2018-04-18T12:35:42.303Z,29.40
2018-04-18T12:38:08.508Z,29.50
2018-04-18T12:40:34.820Z,29.30
2018-04-18T12:43:01.049Z,28.90
2018-04-18T12:45:28.006Z,28.70
2018-04-18T12:47:54.275Z,28.70
2018-04-18T12:50:20.484Z,28.40
2018-04-18T12:52:46.736Z,28.50
2018-04-18T12:55:12.959Z,28.60
2018-04-18T12:57:39.217Z,29.20
2018-04-18T13:00:05.434Z,29.50
2018-04-18T13:02:31.690Z,29.40
2018-04-18T13:04:57.904Z,29.30
2018-04-18T13:07:24.211Z,29.50
2018-04-18T13:09:50.463Z,28.80
2018-04-18T13:14:55.486Z,29.40
2018-04-18T13:17:21.765Z,29.30
2018-04-18T13:19:48.731Z,29.90
2018-04-18T13:22:14.972Z,29.90
2018-04-18T13:24:41.372Z,30.20
2018-04-18T13:27:07.694Z,30.10
2018-04-18T13:29:34.823Z,30.50
2018-04-18T13:32:01.052Z,30.40
2018-04-18T13:34:27.269Z,30.60
2018-04-18T13:36:53.494Z,30.90
2018-04-18T13:39:19.749Z,30.20
2018-04-18T13:41:46.925Z,30.30
2018-04-18T13:44:13.227Z,30.20
2018-04-18T13:46:39.483Z,30.10
2018-04-18T13:49:05.923Z,30.40
2018-04-18T13:51:32.297Z,30.10
2018-04-18T13:53:58.505Z,30.30
2018-04-18T13:56:25.523Z,31.20
2018-04-18T13:58:52.025Z,30.60
2018-04-18T14:01:18.373Z,30.90
2018-04-18T14:03:45.364Z,31.10
2018-04-18T14:06:11.992Z,30.90
2018-04-18T14:08:38.791Z,30.40
2018-04-18T14:11:05.757Z,30.00
2018-04-18T14:13:32.001Z,30.00
2018-04-18T14:15:58.236Z,30.00
2018-04-18T14:18:24.761Z,30.00
2018-04-18T14:20:51.079Z,30.00
2018-04-18T14:23:17.334Z,29.80
2018-04-18T14:25:44.376Z,30.00
2018-04-18T14:28:10.643Z,30.00
2018-04-18T14:30:36.845Z,29.60
2018-04-18T14:33:03.127Z,29.90
2018-04-18T14:35:29.463Z,29.60
2018-04-18T14:37:55.713Z,29.20
2018-04-18T14:40:21.977Z,28.90
2018-04-18T14:42:49.661Z,28.30
2018-04-18T14:45:16.011Z,28.20
2018-04-18T14:47:42.286Z,28.10
2018-04-18T14:50:08.512Z,27.60
2018-04-18T14:52:34.724Z,27.20
2018-04-18T14:55:00.948Z,26.80
2018-04-18T14:57:27.156Z,26.50
2018-04-18T14:59:53.404Z,25.90
2018-04-18T15:02:19.721Z,25.10
2018-04-18T15:04:45.953Z,24.10
2018-04-18T15:07:13.007Z,23.60
2018-04-18T15:09:39.241Z,23.50
2018-04-18T15:12:05.492Z,23.70
2018-04-18T15:14:31.849Z,23.40
2018-04-18T15:16:58.144Z,22.90
2018-04-18T15:19:25.805Z,22.80
2018-04-18T15:21:52.040Z,22.70
2018-04-18T15:24:18.333Z,22.70
2018-04-18T15:26:45.356Z,26.30
2018-04-18T15:29:12.349Z,26.70
2018-04-18T15:31:38.559Z,26.70
2018-04-18T15:34:04.840Z,26.40
2018-04-18T15:36:31.842Z,24.50
2018-04-18T15:39:04.168Z,24.20
2018-04-18T15:41:31.248Z,24.80
2018-04-18T15:43:57.457Z,24.80
2018-04-18T15:46:23.664Z,24.50
2018-04-18T15:48:50.624Z,24.40
2018-04-18T15:51:17.615Z,24.50
2018-04-18T15:53:44.907Z,24.50
2018-04-18T15:56:11.876Z,24.30
2018-04-18T15:58:38.150Z,24.30
2018-04-18T16:01:04.376Z,24.30
2018-04-18T16:03:30.605Z,24.30
2018-04-18T16:05:57.260Z,24.10
2018-04-18T16:08:24.203Z,23.80
2018-04-18T16:10:51.184Z,24.70
2018-04-18T16:13:17.411Z,24.10
2018-04-18T16:15:43.676Z,24.30
2018-04-18T16:18:09.914Z,24.00
2018-04-18T16:20:37.864Z,23.90
2018-04-18T16:23:04.102Z,23.90
2018-04-18T16:25:30.353Z,24.40
2018-04-18T16:28:02.743Z,25.30
2018-04-18T16:30:39.954Z,24.70
2018-04-18T16:33:06.225Z,24.70
2018-04-18T16:35:32.424Z,24.40
2018-04-18T16:37:58.662Z,24.10
2018-04-18T16:40:24.866Z,23.90
2018-04-18T16:42:51.076Z,24.20
2018-04-18T16:45:18.115Z,24.40
2018-04-18T16:47:45.076Z,24.40
2018-04-18T16:50:11.304Z,24.30
2018-04-18T16:52:37.532Z,23.90
2018-04-18T16:55:03.753Z,23.60
2018-04-18T16:57:30.037Z,23.40
2018-04-18T16:59:56.272Z,23.50
2018-04-18T17:02:22.513Z,23.90
2018-04-18T17:04:49.520Z,24.30
2018-04-18T17:07:15.739Z,24.30
2018-04-18T17:09:42.032Z,24.90
2018-04-18T17:12:09.150Z,25.50
2018-04-18T17:14:35.384Z,25.30
2018-04-18T17:17:01.605Z,25.10
2018-04-18T17:19:27.827Z,25.00
2018-04-18T17:21:54.024Z,25.00
2018-04-18T17:24:20.266Z,25.20
2018-04-18T17:26:46.510Z,25.60
2018-04-18T17:29:12.715Z,26.10
2018-04-18T17:31:39.003Z,25.70
2018-04-18T17:34:06.023Z,25.80
2018-04-18T17:36:32.338Z,25.70
2018-04-18T17:38:58.576Z,25.80
2018-04-18T17:41:24.787Z,26.10
2018-04-18T17:43:51.044Z,26.70
2018-04-18T17:46:18.099Z,28.00
2018-04-18T17:48:44.487Z,28.00
2018-04-18T17:51:10.727Z,28.90
2018-04-18T17:53:36.962Z,29.30
2018-04-18T17:56:03.186Z,29.80
2018-04-18T17:58:29.572Z,30.10
2018-04-18T18:00:55.825Z,32.10
2018-04-18T18:03:22.098Z,32.60
2018-04-18T18:05:48.365Z,32.50
2018-04-18T18:08:14.650Z,33.30
2018-04-18T18:10:40.850Z,33.50
2018-04-18T18:13:07.102Z,33.70
2018-04-18T18:15:33.381Z,33.50
2018-04-18T18:17:59.609Z,34.00
2018-04-18T18:20:25.832Z,34.30
2018-04-18T18:22:52.264Z,34.60
2018-04-18T18:25:18.910Z,34.80
2018-04-18T18:27:45.268Z,34.80
2018-04-18T18:30:11.756Z,35.30
2018-04-18T18:32:38.831Z,36.10
2018-04-18T18:35:05.121Z,36.10
2018-04-18T18:37:31.412Z,36.60
2018-04-18T18:39:57.689Z,36.50
2018-04-18T18:42:23.935Z,36.90
2018-04-18T18:44:50.149Z,37.40
2018-04-18T18:47:17.189Z,38.60
2018-04-18T18:49:43.475Z,38.60
2018-04-18T18:52:09.680Z,38.60
2018-04-18T18:54:35.896Z,38.50
2018-04-18T18:57:02.206Z,38.50
2018-04-18T18:59:28.410Z,38.50
2018-04-18T19:01:54.683Z,38.50
2018-04-18T19:04:20.945Z,38.40
2018-04-18T19:06:47.188Z,38.70
2018-04-18T19:09:14.890Z,39.90
2018-04-18T19:11:41.161Z,39.80
2018-04-18T19:14:07.428Z,40.20
2018-04-18T19:16:34.451Z,41.20
2018-04-18T19:19:01.462Z,42.10
2018-04-18T19:21:27.689Z,42.00
2018-04-18T19:23:53.910Z,42.20
2018-04-18T19:26:20.153Z,42.20
2018-04-18T19:28:46.802Z,42.00
2018-04-18T19:31:13.192Z,42.00
2018-04-18T19:33:39.807Z,42.00
2018-04-18T19:36:06.174Z,42.00
2018-04-18T19:38:32.377Z,42.10
2018-04-18T19:40:58.617Z,42.40
2018-04-18T19:43:24.844Z,42.70
2018-04-18T19:45:51.128Z,42.90
2018-04-18T19:48:17.353Z,43.10
2018-04-18T19:50:43.631Z,43.30
2018-04-18T19:53:09.924Z,43.20
2018-04-18T19:55:36.268Z,43.40
2018-04-18T19:58:02.505Z,43.40
2018-04-18T20:00:28.749Z,43.60
2018-04-18T20:02:54.978Z,43.70
2018-04-18T20:05:21.294Z,43.80
2018-04-18T20:07:47.563Z,43.80
2018-04-18T20:10:13.823Z,44.40
2018-04-18T20:12:40.573Z,45.40
2018-04-18T20:15:10.443Z,44.90
2018-04-18T20:17:38.172Z,45.40
2018-04-18T20:20:04.482Z,45.40
2018-04-18T20:22:31.485Z,45.90
2018-04-18T20:24:57.657Z,45.90
2018-04-18T20:27:24.592Z,46.80
2018-04-18T20:29:51.614Z,47.30
2018-04-18T20:32:17.875Z,47.30
2018-04-18T20:34:44.160Z,47.30
2018-04-18T20:37:10.434Z,47.60
2018-04-18T20:39:37.385Z,48.50
2018-04-18T20:42:03.653Z,49.10
2018-04-18T20:44:29.876Z,48.80
2018-04-18T20:46:56.149Z,49.30
2018-04-18T20:49:23.108Z,50.00
2018-04-18T20:51:50.102Z,50.50
2018-04-18T20:54:16.474Z,50.40
2018-04-18T20:56:42.720Z,50.90
2018-04-18T20:59:08.943Z,51.30
2018-04-18T21:01:35.958Z,51.70
2018-04-18T21:04:02.165Z,51.70
2018-04-18T21:06:28.380Z,52.30
2018-04-18T21:08:54.648Z,52.30
2018-04-18T21:11:21.647Z,52.90
2018-04-18T21:13:47.893Z,52.90
2018-04-18T21:16:14.885Z,53.50
2018-04-18T21:18:41.884Z,53.60
2018-04-18T21:21:08.124Z,54.10
2018-04-18T21:23:34.427Z,53.90
2018-04-18T21:26:00.691Z,54.10
2018-04-18T21:28:26.927Z,54.10
2018-04-18T21:30:54.193Z,54.90
2018-04-18T21:33:20.425Z,54.90
2018-04-18T21:35:47.436Z,55.20
2018-04-18T21:38:13.637Z,55.20
2018-04-18T21:40:39.904Z,55.40
2018-04-18T21:43:06.169Z,55.40
2018-04-18T21:45:33.394Z,55.60
2018-04-18T21:48:00.411Z,55.60
2018-04-18T21:50:26.678Z,55.60
2018-04-18T21:52:52.917Z,56.00
2018-04-18T21:55:19.131Z,56.00
2018-04-18T21:57:45.691Z,56.30
2018-04-18T22:00:11.904Z,56.70
2018-04-18T22:02:38.116Z,56.80
2018-04-18T22:05:05.120Z,57.20
2018-04-18T22:07:31.590Z,57.20
2018-04-18T22:09:57.917Z,57.50
2018-04-18T22:12:24.916Z,57.60
2018-04-18T22:14:51.144Z,57.50
2018-04-18T22:17:17.501Z,57.50
2018-04-18T22:19:43.709Z,57.50
2018-04-18T22:22:09.956Z,57.70
2018-04-18T22:24:36.221Z,57.80
2018-04-18T22:27:02.547Z,58.00
2018-04-18T22:29:30.455Z,58.20
2018-04-18T22:31:56.707Z,58.20
2018-04-18T22:34:22.903Z,58.10
2018-04-18T22:36:49.235Z,58.30
2018-04-18T22:39:15.560Z,58.10
2018-04-18T22:41:41.821Z,58.30
2018-04-18T22:44:08.057Z,58.50
2018-04-18T22:46:34.408Z,58.30
2018-04-18T22:49:00.707Z,58.20
2018-04-18T22:51:26.976Z,58.30
2018-04-18T22:53:53.936Z,58.00
2018-04-18T22:56:20.185Z,57.90
2018-04-18T22:58:46.417Z,58.00
2018-04-18T23:01:12.651Z,58.20
2018-04-18T23:03:38.868Z,58.40
2018-04-18T23:06:05.121Z,58.50
2018-04-18T23:08:31.336Z,58.20
2018-04-18T23:10:57.560Z,58.00
2018-04-18T23:13:23.762Z,58.00
2018-04-18T23:15:49.989Z,57.90
2018-04-18T23:18:16.236Z,57.70
2018-04-18T23:20:42.523Z,57.40
2018-04-18T23:23:09.525Z,57.30
2018-04-18T23:25:35.717Z,57.20
2018-04-18T23:28:01.936Z,57.30
2018-04-18T23:30:28.880Z,57.30
2018-04-18T23:32:55.108Z,57.20
2018-04-18T23:35:22.078Z,57.30
2018-04-18T23:37:48.365Z,57.30
2018-04-18T23:40:15.378Z,57.30
2018-04-18T23:42:41.659Z,57.30
2018-04-18T23:45:07.869Z,56.90
2018-04-18T23:47:34.845Z,55.70
2018-04-18T23:50:01.106Z,56.10
2018-04-18T23:52:27.357Z,55.80
2018-04-18T23:54:53.741Z,55.60
2018-04-18T23:57:20.094Z,55.30
2018-04-18T23:59:46.342Z,55.10
